Granada, Spain

8:57 AM CEST on October 22, 2014 (GMT +0200)
Granada | Change Station
CLOSE
Current Station
Airport
Location: Granada,
Elevation: 1870 ft
Nearby Weather Stations

Elev 1870 ft 37.19 °N, 3.79 °W | Updated 27 minutes ago

Clear
Clear
50 °F
Feels Like 50 °F
N
0
Wind Variable Wind from North

Today
High -- | Low -- °F
--% Chance of Precip.
Yesterday
High -- | Low -- °F
Precip. -- in
8:29 AM 7:29 PM
Waning Crescent, 3% visible
Pressure 30.33 in
Visibility -9999.0 miles
Clouds
Dew Point 46 °F
Humidity 87%
Rainfall 0.00 in
Snow Depth Not available.
UV Not available.
Pollen Not available.
Air Quality Not available.
Flu Activity Not available.
METAR LEGR 220630Z 00000KT CAVOK 10/08 Q1027

More Conditions Fewer Conditions

Pressure 30.33 in
Visibility -9999.0 miles
Clouds
Dew Point 46 °F
Humidity 87%
Rainfall 0.00 in
Snow Depth Not available.
UV Not available.
Pollen Not available.
Air Quality Not available.
Flu Activity Not available.
METAR LEGR 220630Z 00000KT CAVOK 10/08 Q1027

More Conditions Fewer Conditions

10-Day Weather Forecast

Almanac

Astronomy

Oct. 22, 2014 Rise Set
Actual Time 8:29 AM CEST 7:29 PM CEST
Civil Twilight 8:02 AM CEST 7:55 PM CEST
Nautical Twilight 7:32 AM CEST 8:26 PM CEST
Astronomical Twilight 7:02 AM CEST 8:56 PM CEST
Moon 6:58 AM CEST 6:46 PM CEST
Length of Visible Light 11h 52m
Length of Day
10h 59m
Tomorrow will be 2m 13s shorter.
Waning Crescent, 3% of the Moon is Illuminated
Today
Waning Crescent
Oct 23
New
Oct 30
First Quarter
Nov 6
Full
Nov 14
Last Quarter

Yesterday's Extremes

Country Highs Country Lows

Community

WunderPhotos

Upload Photos

1,763,884 photos uploaded!

Nearby

Snow Depth

Not available.

Earthquake Activity

City Distance Mag. Time & Date
No recent earthquake activity has been reported nearby.
Minimum magnitude displayed is 2.5.

Coastal Water Temperatures

Place Temperature
No Stations Reporting

Nearby Weather Stations